Time;durP1;ratioP1;P1;durP2;ratioP2;P2;SDS_P1;SDS_P2;PMS_P1;PMS_P2;Temp;Humidity;BMP_temperature;BMP_pressure;BME280_temperature;BME280_humidity;BME280_pressure;Samples;Min_cycle;Max_cycle;Signal;HPM_P1;HPM_P2
2022/11/11 00:00:24;;;;;;;55.83;30.48;;;;;;;;;;2123877;27;20050;-47
2022/11/11 00:01:25;;;;;;;49.00;29.37;;;;;;;;;;2123879;27;20134;-46
2022/11/11 00:02:26;;;;;;;54.63;31.27;;;;;;;;;;2123630;27;20293;-44
2022/11/11 00:03:28;;;;;;;54.13;31.17;;;;;;;;;;2123863;27;20070;-49
2022/11/11 00:04:30;;;;;;;59.55;31.75;;;;;;;;;;2123842;27;20072;-47
2022/11/11 00:05:32;;;;;;;52.03;29.52;;;;;;;;;;2123045;27;22330;-49
2022/11/11 00:06:33;;;;;;;53.75;30.50;;;;;;;;;;2123872;27;20441;-48
2022/11/11 00:07:34;;;;;;;56.77;32.10;;;;;;;;;;2123724;27;20043;-47
2022/11/11 00:08:35;;;;;;;53.10;31.60;;;;;;;;;;2123700;27;20051;-46
2022/11/11 00:09:36;;;;;;;51.67;29.47;;;;;;;;;;2123676;27;20043;-47
2022/11/11 00:10:37;;;;;;;56.63;29.83;;;;;;;;;;2123501;27;20442;-48
2022/11/11 00:11:38;;;;;;;54.67;30.37;;;;;;;;;;2123780;27;20050;-48
2022/11/11 00:12:39;;;;;;;57.45;31.77;;;;;;;;;;2123649;27;20059;-48
2022/11/11 00:13:41;;;;;;;56.07;31.57;;;;;;;;;;2123598;27;20043;-48
2022/11/11 00:14:42;;;;;;;;;;;;;;;;;;2124136;27;20050;-48
2022/11/11 00:15:43;;;;;;;52.63;30.60;;;;;;;;;;2123648;27;19919;-47
2022/11/11 00:26:04;;;;;;;48.42;28.65;;;;;;;;;;2123589;27;20075;-43
2022/11/11 00:27:24;;;;;;;53.75;30.35;;;;;;;;;;2123728;27;20043;-43
2022/11/11 00:28:26;;;;;;;43.87;26.37;;;;;;;;;;2123523;27;20140;-43
2022/11/11 00:29:27;;;;;;;50.90;30.27;;;;;;;;;;2130357;27;20043;-49
2022/11/11 00:30:28;;;;;;;48.78;28.02;;;;;;;;;;2132291;27;20053;-49
2022/11/11 00:31:29;;;;;;;52.20;29.42;;;;;;;;;;2132026;27;20396;-49
2022/11/11 00:32:32;;;;;;;52.25;30.20;;;;;;;;;;2132052;27;20049;-49
2022/11/11 00:33:33;;;;;;;50.42;28.73;;;;;;;;;;2132037;27;20051;-47
2022/11/11 00:34:34;;;;;;;53.43;31.37;;;;;;;;;;2132177;27;20086;-47
2022/11/11 00:35:53;;;;;;;44.97;26.33;;;;;;;;;;2132042;27;20276;-48
2022/11/11 00:36:55;;;;;;;48.30;27.33;;;;;;;;;;2132153;27;20074;-48
2022/11/11 00:38:05;;;;;;;49.97;29.40;;;;;;;;;;2132023;27;20077;-50
2022/11/11 00:39:06;;;;;;;53.88;29.65;;;;;;;;;;2132171;27;20087;-51
2022/11/11 00:40:08;;;;;;;50.70;27.83;;;;;;;;;;2132209;27;20046;-48
2022/11/11 00:41:09;;;;;;;47.92;28.30;;;;;;;;;;2132285;27;20091;-46
2022/11/11 00:42:10;;;;;;;49.22;28.92;;;;;;;;;;2131918;27;20047;-45
2022/11/11 00:43:11;;;;;;;53.45;29.92;;;;;;;;;;2131951;27;20458;-45
2022/11/11 00:44:12;;;;;;;44.57;25.87;;;;;;;;;;2132107;27;20038;-45
2022/11/11 00:45:13;;;;;;;58.25;30.60;;;;;;;;;;2131975;27;20095;-46
2022/11/11 00:51:33;;;;;;;49.53;27.23;;;;;;;;;;2132162;27;20042;-48
2022/11/11 00:52:35;;;;;;;51.80;29.63;;;;;;;;;;2132273;27;20133;-44
2022/11/11 00:53:37;;;;;;;48.35;27.80;;;;;;;;;;2131891;27;20444;-45
2022/11/11 00:54:38;;;;;;;48.17;27.45;;;;;;;;;;2131810;27;20046;-45
2022/11/11 00:55:40;;;;;;;57.17;30.53;;;;;;;;;;2132135;27;20125;-48
2022/11/11 00:56:40;;;;;;;52.70;30.40;;;;;;;;;;2132011;27;20158;-48
2022/11/11 00:57:42;;;;;;;52.07;30.87;;;;;;;;;;2131887;27;20050;-49
2022/11/11 00:58:43;;;;;;;46.88;27.85;;;;;;;;;;2131830;27;20503;-50
2022/11/11 00:59:44;;;;;;;51.03;31.20;;;;;;;;;;2131985;27;20077;-49
2022/11/11 01:00:46;;;;;;;54.80;30.40;;;;;;;;;;2131716;27;20743;-49
2022/11/11 01:01:47;;;;;;;51.90;29.10;;;;;;;;;;2131869;27;20507;-49
2022/11/11 01:02:48;;;;;;;56.80;32.08;;;;;;;;;;2131841;27;20074;-48
2022/11/11 01:03:49;;;;;;;55.77;30.93;;;;;;;;;;2132153;27;20472;-51
2022/11/11 01:04:50;;;;;;;52.83;30.58;;;;;;;;;;2131823;27;20294;-48
2022/11/11 01:05:51;;;;;;;56.13;32.37;;;;;;;;;;2132125;27;20153;-46
2022/11/11 01:06:52;;;;;;;49.45;28.83;;;;;;;;;;2131926;27;20487;-50
2022/11/11 01:07:55;;;;;;;52.33;31.15;;;;;;;;;;2131990;27;20049;-48
2022/11/11 01:08:56;;;;;;;54.38;33.38;;;;;;;;;;2131749;27;20050;-52
2022/11/11 01:09:57;;;;;;;58.43;33.40;;;;;;;;;;2131655;27;20042;-49
2022/11/11 01:10:58;;;;;;;50.78;33.08;;;;;;;;;;2131609;27;20054;-48
2022/11/11 01:11:59;;;;;;;55.17;31.73;;;;;;;;;;2131793;27;20038;-48
2022/11/11 01:13:10;;;;;;;62.35;34.13;;;;;;;;;;2131851;27;20042;-50
2022/11/11 01:14:11;;;;;;;60.72;33.55;;;;;;;;;;2131985;27;20073;-48
2022/11/11 01:15:12;;;;;;;56.47;31.02;;;;;;;;;;2131781;27;20046;-45
2022/11/11 01:16:15;;;;;;;53.85;31.63;;;;;;;;;;2131411;27;20057;-45
2022/11/11 01:17:16;;;;;;;56.05;32.00;;;;;;;;;;2130973;27;20487;-45
2022/11/11 01:18:18;;;;;;;60.33;32.07;;;;;;;;;;2132050;27;20125;-49
2022/11/11 01:19:19;;;;;;;50.53;29.13;;;;;;;;;;2132065;27;20114;-48
2022/11/11 01:20:20;;;;;;;56.73;29.77;;;;;;;;;;2131725;27;20095;-49
2022/11/11 01:21:22;;;;;;;50.00;27.80;;;;;;;;;;2131712;27;20069;-49
2022/11/11 01:22:23;;;;;;;;;;;;;;;;;;2132278;27;20046;-48
2022/11/11 01:23:26;;;;;;;51.17;29.27;;;;;;;;;;2131698;27;19938;-47
2022/11/11 01:24:27;;;;;;;52.67;29.25;;;;;;;;;;2131755;27;20065;-49
2022/11/11 01:25:28;;;;;;;51.28;28.77;;;;;;;;;;2126338;27;20049;-45
2022/11/11 01:26:29;;;;;;;56.35;30.15;;;;;;;;;;2123403;27;20043;-46
2022/11/11 01:27:33;;;;;;;54.25;30.02;;;;;;;;;;2123015;27;20054;-45
2022/11/11 01:28:34;;;;;;;51.50;28.80;;;;;;;;;;2123215;27;20054;-47
2022/11/11 01:29:35;;;;;;;53.50;29.83;;;;;;;;;;2123141;27;20416;-44
2022/11/11 01:30:36;;;;;;;53.63;28.80;;;;;;;;;;2123008;27;20051;-44
2022/11/11 01:31:37;;;;;;;47.05;26.95;;;;;;;;;;2123262;27;20410;-44
2022/11/11 01:32:39;;;;;;;51.40;28.60;;;;;;;;;;2123264;27;20408;-49
2022/11/11 01:33:40;;;;;;;51.05;27.83;;;;;;;;;;2123150;27;20047;-49
2022/11/11 01:34:41;;;;;;;51.95;27.38;;;;;;;;;;2123017;27;20482;-48
2022/11/11 01:35:42;;;;;;;48.55;25.38;;;;;;;;;;2123157;27;20057;-49
2022/11/11 01:36:43;;;;;;;49.10;26.60;;;;;;;;;;2123032;27;20516;-48
2022/11/11 01:37:45;;;;;;;47.22;25.88;;;;;;;;;;2123192;27;20185;-51
2022/11/11 01:38:48;;;;;;;45.20;25.95;;;;;;;;;;2123272;27;20059;-49
2022/11/11 01:39:49;;;;;;;46.10;25.15;;;;;;;;;;2123104;27;20043;-48
2022/11/11 01:40:51;;;;;;;42.20;24.63;;;;;;;;;;2123064;27;20070;-47
2022/11/11 01:41:52;;;;;;;49.03;25.45;;;;;;;;;;2123459;27;20055;-43
2022/11/11 01:43:08;;;;;;;43.85;25.05;;;;;;;;;;2122974;27;20088;-43
2022/11/11 01:44:17;;;;;;;46.55;25.40;;;;;;;;;;2123350;27;20082;-45
2022/11/11 01:45:37;;;;;;;48.08;25.52;;;;;;;;;;2122950;27;20055;-44
2022/11/11 01:46:42;;;;;;;46.40;24.30;;;;;;;;;;2123113;28;20055;-46
2022/11/11 01:49:28;;;;;;;43.42;24.05;;;;;;;;;;2122840;28;20051;-45
2022/11/11 01:50:29;;;;;;;41.42;23.60;;;;;;;;;;2122799;27;20051;-45
2022/11/11 01:51:35;;;;;;;38.90;23.37;;;;;;;;;;2123269;27;20055;-50
2022/11/11 01:52:38;;;;;;;43.20;23.20;;;;;;;;;;2122901;27;20301;-49
2022/11/11 01:53:40;;;;;;;38.63;22.33;;;;;;;;;;2122900;27;20054;-49
2022/11/11 01:54:43;;;;;;;38.20;21.25;;;;;;;;;;2122846;27;20419;-50
2022/11/11 01:55:44;;;;;;;40.67;22.73;;;;;;;;;;2122836;27;20059;-53
2022/11/11 01:56:46;;;;;;;42.27;23.33;;;;;;;;;;2123187;28;20139;-44
2022/11/11 01:57:49;;;;;;;37.30;21.90;;;;;;;;;;2123047;27;20054;-45
2022/11/11 01:58:51;;;;;;;41.10;22.08;;;;;;;;;;2122842;27;20047;-45
2022/11/11 01:59:59;;;;;;;39.47;22.40;;;;;;;;;;2123038;27;20074;-44
2022/11/11 02:01:01;;;;;;;38.28;22.25;;;;;;;;;;2122722;27;20051;-45
2022/11/11 02:02:04;;;;;;;38.83;22.88;;;;;;;;;;2123098;28;20093;-46
2022/11/11 02:03:08;;;;;;;41.35;22.27;;;;;;;;;;2123404;27;20043;-49
2022/11/11 02:05:42;;;;;;;41.78;22.52;;;;;;;;;;2122781;28;20047;-45
2022/11/11 02:06:43;;;;;;;37.17;20.25;;;;;;;;;;2123012;27;20049;-50
2022/11/11 02:07:45;;;;;;;32.75;19.83;;;;;;;;;;2122801;27;20450;-50
2022/11/11 02:08:46;;;;;;;35.35;20.75;;;;;;;;;;2122966;27;20054;-48
2022/11/11 02:09:49;;;;;;;34.90;21.13;;;;;;;;;;2122983;27;20448;-48
2022/11/11 02:10:51;;;;;;;36.05;20.23;;;;;;;;;;2123106;27;20054;-49
2022/11/11 02:14:38;;;;;;;35.45;19.90;;;;;;;;;;2122832;28;20047;-48
2022/11/11 02:15:40;;;;;;;33.63;20.38;;;;;;;;;;2122696;27;20117;-49
2022/11/11 02:16:41;;;;;;;33.65;20.23;;;;;;;;;;2122756;27;20496;-50
2022/11/11 02:17:42;;;;;;;30.27;18.73;;;;;;;;;;2122836;27;20091;-52
2022/11/11 02:18:43;;;;;;;37.20;19.40;;;;;;;;;;2123147;27;20053;-49
2022/11/11 02:19:47;;;;;;;37.28;20.73;;;;;;;;;;2123023;27;20082;-45
2022/11/11 02:20:48;;;;;;;36.17;20.05;;;;;;;;;;2122766;27;20053;-44
2022/11/11 02:21:54;;;;;;;37.70;21.67;;;;;;;;;;2128246;27;20043;-45
2022/11/11 02:22:57;;;;;;;33.90;19.55;;;;;;;;;;2131346;27;20449;-44
2022/11/11 02:24:02;;;;;;;38.58;20.13;;;;;;;;;;2131340;27;20118;-45
2022/11/11 02:25:05;;;;;;;32.40;18.40;;;;;;;;;;2129931;27;20074;-45
2022/11/11 02:26:08;;;;;;;36.85;20.60;;;;;;;;;;2122676;27;20047;-44
2022/11/11 02:27:10;;;;;;;32.70;19.48;;;;;;;;;;2122851;27;20047;-45
2022/11/11 02:28:12;;;;;;;31.25;18.80;;;;;;;;;;2122353;27;20488;-46
2022/11/11 02:29:15;;;;;;;35.05;18.90;;;;;;;;;;2122859;27;20067;-44
2022/11/11 02:30:18;;;;;;;30.15;18.67;;;;;;;;;;2122505;27;20511;-46
2022/11/11 02:31:18;;;;;;;33.78;19.35;;;;;;;;;;2122695;27;20578;-44
2022/11/11 02:32:20;;;;;;;32.07;18.17;;;;;;;;;;2122792;27;20043;-45
2022/11/11 02:33:21;;;;;;;34.60;18.80;;;;;;;;;;2122797;27;20279;-44
2022/11/11 02:34:28;;;;;;;33.08;19.60;;;;;;;;;;2122797;27;20126;-44
2022/11/11 02:35:30;;;;;;;31.63;18.52;;;;;;;;;;2122595;28;20086;-44
2022/11/11 02:36:31;;;;;;;32.22;19.35;;;;;;;;;;2122854;27;20047;-44
2022/11/11 02:37:32;;;;;;;32.72;18.58;;;;;;;;;;2122728;27;20043;-44
2022/11/11 02:38:34;;;;;;;33.05;18.83;;;;;;;;;;2122748;27;20078;-45
2022/11/11 02:39:37;;;;;;;32.10;18.48;;;;;;;;;;2123115;27;20039;-48
2022/11/11 02:42:19;;;;;;;28.42;17.20;;;;;;;;;;2122931;27;20050;-48
2022/11/11 02:43:19;;;;;;;31.77;18.52;;;;;;;;;;2122614;27;20051;-49
2022/11/11 02:44:21;;;;;;;31.10;18.40;;;;;;;;;;2122622;27;20046;-49
2022/11/11 02:45:22;;;;;;;24.10;15.65;;;;;;;;;;2122717;27;20417;-47
2022/11/11 02:46:23;;;;;;;30.83;18.27;;;;;;;;;;2122591;27;20423;-51
2022/11/11 02:47:25;;;;;;;30.83;17.45;;;;;;;;;;2122832;27;20594;-48
2022/11/11 02:48:26;;;;;;;29.05;18.63;;;;;;;;;;2122885;27;20062;-45
2022/11/11 02:49:27;;;;;;;29.42;17.60;;;;;;;;;;2122584;27;20047;-44
2022/11/11 02:50:28;;;;;;;27.40;16.80;;;;;;;;;;2122511;27;20070;-44
2022/11/11 02:51:29;;;;;;;29.17;17.90;;;;;;;;;;2122608;27;20415;-44
2022/11/11 02:52:31;;;;;;;28.77;18.37;;;;;;;;;;2122523;27;20070;-44
2022/11/11 02:53:31;;;;;;;29.67;18.48;;;;;;;;;;2122677;28;20047;-44
2022/11/11 02:54:33;;;;;;;30.58;18.92;;;;;;;;;;2122624;27;20146;-45
2022/11/11 02:55:34;;;;;;;33.22;18.27;;;;;;;;;;2122723;27;20051;-50
2022/11/11 02:57:55;;;;;;;26.92;17.00;;;;;;;;;;2122514;27;20139;-49
2022/11/11 02:58:56;;;;;;;28.55;17.52;;;;;;;;;;2122943;27;20043;-44
2022/11/11 02:59:58;;;;;;;29.37;18.20;;;;;;;;;;2122583;27;20463;-45
2022/11/11 03:00:59;;;;;;;27.15;17.48;;;;;;;;;;2122536;27;20051;-44
2022/11/11 03:02:01;;;;;;;28.48;18.02;;;;;;;;;;2122646;27;20054;-45
2022/11/11 03:03:02;;;;;;;27.52;17.30;;;;;;;;;;2122539;27;20412;-45
2022/11/11 03:04:04;;;;;;;31.80;18.02;;;;;;;;;;2122509;27;20484;-44
2022/11/11 03:05:05;;;;;;;27.65;17.10;;;;;;;;;;2122565;27;20506;-44
2022/11/11 03:06:07;;;;;;;29.48;17.67;;;;;;;;;;2122514;27;20095;-44
2022/11/11 03:07:08;;;;;;;28.38;17.88;;;;;;;;;;2122537;28;20047;-43
2022/11/11 03:08:09;;;;;;;28.20;16.35;;;;;;;;;;2122640;27;20195;-44
2022/11/11 03:09:10;;;;;;;32.25;18.27;;;;;;;;;;2122523;27;20088;-44
2022/11/11 03:10:12;;;;;;;27.20;16.73;;;;;;;;;;2122647;27;20111;-44
2022/11/11 03:11:13;;;;;;;27.30;16.60;;;;;;;;;;2122715;27;20042;-44
2022/11/11 03:12:14;;;;;;;26.95;15.27;;;;;;;;;;2122571;27;20043;-44
2022/11/11 03:13:15;;;;;;;27.55;17.02;;;;;;;;;;2122509;27;20154;-47
2022/11/11 03:14:17;;;;;;;28.90;17.20;;;;;;;;;;2122699;27;20055;-45
2022/11/11 03:15:18;;;;;;;26.02;16.52;;;;;;;;;;2122638;27;20290;-44
2022/11/11 03:17:38;;;;;;;30.40;17.00;;;;;;;;;;2122578;27;20193;-44
2022/11/11 03:17:50;;;;;;;28.50;16.77;;;;;;;;;;2125520;27;20045;-43
2022/11/11 03:18:51;;;;;;;25.67;16.83;;;;;;;;;;2131025;27;20118;-44
2022/11/11 03:21:03;;;;;;;28.55;17.40;;;;;;;;;;2131134;27;20047;-43
2022/11/11 03:21:13;;;;;;;28.13;16.65;;;;;;;;;;2131104;27;20099;-44
2022/11/11 03:22:34;;;;;;;25.35;15.90;;;;;;;;;;2130896;27;20440;-45
2022/11/11 03:23:55;;;;;;;27.42;16.52;;;;;;;;;;2131083;27;20050;-48
2022/11/11 03:26:16;;;;;;;26.15;15.43;;;;;;;;;;2122547;27;20050;-47
2022/11/11 03:27:17;;;;;;;27.75;16.83;;;;;;;;;;2122441;27;20058;-48
2022/11/11 03:28:19;;;;;;;29.15;16.15;;;;;;;;;;2122430;28;20403;-47
2022/11/11 03:29:20;;;;;;;27.02;17.05;;;;;;;;;;2122443;27;20047;-47
2022/11/11 03:30:21;;;;;;;25.27;14.38;;;;;;;;;;2122319;27;20055;-47
2022/11/11 03:31:22;;;;;;;30.03;17.47;;;;;;;;;;2122447;27;20050;-47
2022/11/11 03:32:23;;;;;;;30.45;17.17;;;;;;;;;;2122580;27;20047;-48
2022/11/11 03:33:24;;;;;;;27.83;17.48;;;;;;;;;;2122502;27;20054;-48
2022/11/11 03:34:25;;;;;;;;;;;;;;;;;;2123181;27;20058;-43
2022/11/11 03:35:27;;;;;;;30.58;17.80;;;;;;;;;;2122382;27;20029;-43
2022/11/11 03:38:14;;;;;;;30.10;16.33;;;;;;;;;;2122366;27;20047;-43
2022/11/11 03:39:08;;;;;;;28.92;16.70;;;;;;;;;;2122370;27;20047;-47
2022/11/11 03:40:10;;;;;;;24.77;15.25;;;;;;;;;;2122801;27;20051;-48
2022/11/11 03:41:11;;;;;;;30.05;16.83;;;;;;;;;;2123939;27;20058;-47
2022/11/11 03:42:13;;;;;;;31.45;18.42;;;;;;;;;;2123833;27;20150;-47
2022/11/11 03:43:15;;;;;;;30.15;17.60;;;;;;;;;;2123963;27;20118;-48
2022/11/11 03:44:16;;;;;;;30.33;17.75;;;;;;;;;;2123890;28;20234;-47
2022/11/11 03:45:17;;;;;;;31.43;17.40;;;;;;;;;;2123895;27;20043;-49
2022/11/11 03:46:18;;;;;;;31.33;17.60;;;;;;;;;;2124017;27;20047;-49
2022/11/11 03:47:19;;;;;;;27.63;16.77;;;;;;;;;;2124002;27;20096;-44
2022/11/11 03:48:21;;;;;;;31.27;17.67;;;;;;;;;;2123782;27;20047;-43
2022/11/11 03:49:22;;;;;;;31.52;19.10;;;;;;;;;;2123758;27;20054;-44
2022/11/11 03:50:23;;;;;;;27.58;17.08;;;;;;;;;;2123716;28;20051;-44
2022/11/11 03:51:24;;;;;;;32.23;18.13;;;;;;;;;;2123772;27;20077;-42
2022/11/11 03:52:25;;;;;;;33.97;18.52;;;;;;;;;;2123756;27;20403;-42
2022/11/11 03:53:26;;;;;;;31.57;18.17;;;;;;;;;;2123882;27;20047;-43
2022/11/11 03:54:27;;;;;;;31.10;17.67;;;;;;;;;;2123765;27;20487;-44
2022/11/11 03:55:29;;;;;;;32.35;17.52;;;;;;;;;;2124011;27;20051;-43
2022/11/11 03:56:29;;;;;;;31.70;18.20;;;;;;;;;;2123743;27;20058;-43
2022/11/11 03:57:31;;;;;;;30.17;17.53;;;;;;;;;;2123891;27;20051;-43
2022/11/11 03:58:32;;;;;;;32.50;18.35;;;;;;;;;;2123684;27;20047;-43
2022/11/11 03:59:33;;;;;;;34.83;19.63;;;;;;;;;;2123849;27;20062;-42
2022/11/11 04:00:35;;;;;;;33.33;18.60;;;;;;;;;;2123682;27;20043;-42
2022/11/11 04:11:10;;;;;;;31.85;17.77;;;;;;;;;;2113510;27;20445;-43
2022/11/11 04:12:11;;;;;;;30.08;18.10;;;;;;;;;;2123594;27;20043;-42
2022/11/11 04:16:07;;;;;;;33.13;18.98;;;;;;;;;;2123727;28;20406;-46
2022/11/11 04:17:08;;;;;;;39.08;20.77;;;;;;;;;;2123757;27;20050;-48
2022/11/11 04:18:09;;;;;;;36.17;20.45;;;;;;;;;;2123758;27;20039;-47
2022/11/11 04:21:48;;;;;;;37.70;20.83;;;;;;;;;;2123589;28;20492;-42
2022/11/11 04:22:52;;;;;;;37.40;20.63;;;;;;;;;;2123621;27;20051;-42
2022/11/11 04:23:53;;;;;;;41.17;21.75;;;;;;;;;;2123566;27;20054;-43
2022/11/11 04:26:13;;;;;;;39.55;20.20;;;;;;;;;;2123575;27;20503;-42
2022/11/11 04:27:15;;;;;;;38.13;21.03;;;;;;;;;;2123516;27;20050;-43
2022/11/11 04:29:36;;;;;;;37.63;21.15;;;;;;;;;;2123518;27;20456;-43
2022/11/11 04:30:37;;;;;;;38.78;21.60;;;;;;;;;;2123445;27;20047;-43
2022/11/11 04:32:34;;;;;;;38.97;19.88;;;;;;;;;;2123559;27;20054;-43
2022/11/11 04:32:59;;;;;;;46.03;23.75;;;;;;;;;;2123652;27;20099;-44
2022/11/11 04:34:00;;;;;;;46.63;23.17;;;;;;;;;;2123478;27;20099;-43
2022/11/11 04:35:02;;;;;;;39.10;21.70;;;;;;;;;;2123658;27;20071;-43
2022/11/11 04:36:03;;;;;;;42.03;22.67;;;;;;;;;;2123310;27;20409;-43
2022/11/11 04:37:05;;;;;;;40.90;21.73;;;;;;;;;;2123585;28;20047;-43
2022/11/11 04:41:03;;;;;;;43.00;23.83;;;;;;;;;;2123449;27;20051;-43
2022/11/11 04:42:05;;;;;;;43.08;24.30;;;;;;;;;;2123693;27;20405;-48
2022/11/11 04:43:09;;;;;;;45.42;24.63;;;;;;;;;;2123433;27;20385;-46
2022/11/11 04:45:30;;;;;;;43.20;23.52;;;;;;;;;;2123394;27;20043;-43
2022/11/11 04:46:31;;;;;;;45.17;23.40;;;;;;;;;;2123523;27;20051;-43
2022/11/11 04:47:32;;;;;;;43.17;21.55;;;;;;;;;;2123735;27;20058;-43
2022/11/11 04:48:33;;;;;;;34.08;21.00;;;;;;;;;;2123689;27;20051;-51
2022/11/11 04:49:34;;;;;;;41.23;23.50;;;;;;;;;;2123690;27;20480;-43
2022/11/11 04:50:36;;;;;;;49.22;25.30;;;;;;;;;;2123290;27;20527;-43
2022/11/11 04:52:53;;;;;;;47.20;24.73;;;;;;;;;;2123294;28;20528;-43
2022/11/11 04:53:54;;;;;;;43.08;23.45;;;;;;;;;;2123612;27;20062;-42
2022/11/11 04:57:42;;;;;;;47.25;23.48;;;;;;;;;;2123549;27;20074;-48
2022/11/11 04:58:42;;;;;;;46.97;24.73;;;;;;;;;;2123407;27;20043;-47
2022/11/11 04:59:44;;;;;;;52.70;25.63;;;;;;;;;;2123696;27;20047;-47
2022/11/11 05:00:45;;;;;;;41.67;23.08;;;;;;;;;;2123360;27;20039;-47
2022/11/11 05:03:15;;;;;;;47.78;26.17;;;;;;;;;;2123312;27;20480;-47
2022/11/11 05:04:17;;;;;;;42.28;21.77;;;;;;;;;;2123311;27;20073;-49
2022/11/11 05:05:18;;;;;;;43.88;25.10;;;;;;;;;;2123279;27;20484;-46
2022/11/11 05:08:58;;;;;;;49.83;25.23;;;;;;;;;;2123404;27;20044;-50
2022/11/11 05:10:00;;;;;;;49.00;24.45;;;;;;;;;;2123014;27;20054;-47
2022/11/11 05:11:01;;;;;;;46.00;24.27;;;;;;;;;;2123120;27;20054;-47
2022/11/11 05:12:02;;;;;;;48.13;24.38;;;;;;;;;;2123218;27;20081;-47
2022/11/11 05:21:21;;;;;;;42.75;23.55;;;;;;;;;;2123342;28;20130;-47
2022/11/11 05:22:25;;;;;;;45.90;23.35;;;;;;;;;;2123752;27;20050;-42
2022/11/11 05:25:24;;;;;;;44.80;23.50;;;;;;;;;;2123459;28;20051;-43
2022/11/11 05:26:07;;;;;;;44.13;24.45;;;;;;;;;;2123094;28;20046;-46
2022/11/11 05:27:08;;;;;;;42.95;24.13;;;;;;;;;;2123142;27;20072;-47
2022/11/11 05:28:09;;;;;;;46.30;23.37;;;;;;;;;;2123091;27;20051;-47
2022/11/11 05:29:10;;;;;;;47.20;24.60;;;;;;;;;;2123111;27;20495;-48
2022/11/11 05:30:12;;;;;;;49.07;23.10;;;;;;;;;;2123130;27;20051;-49
2022/11/11 05:31:14;;;;;;;39.22;21.02;;;;;;;;;;2123178;27;20054;-47
2022/11/11 05:32:15;;;;;;;41.85;22.90;;;;;;;;;;2123263;27;20046;-47
2022/11/11 05:33:16;;;;;;;44.42;23.13;;;;;;;;;;2123078;27;20039;-48
2022/11/11 05:34:17;;;;;;;41.22;22.48;;;;;;;;;;2123450;27;20049;-43
2022/11/11 05:35:19;;;;;;;46.63;23.52;;;;;;;;;;2123004;27;20039;-43
2022/11/11 05:36:19;;;;;;;44.92;23.83;;;;;;;;;;2123428;27;20051;-43
2022/11/11 05:37:21;;;;;;;41.20;22.80;;;;;;;;;;2123489;27;20039;-48
2022/11/11 05:38:21;;;;;;;51.10;24.45;;;;;;;;;;2123073;27;20411;-48
2022/11/11 05:39:23;;;;;;;42.23;23.00;;;;;;;;;;2123162;27;20062;-47
2022/11/11 05:40:24;;;;;;;45.75;23.75;;;;;;;;;;2123025;27;20054;-46
2022/11/11 05:41:25;;;;;;;46.57;23.77;;;;;;;;;;2123160;27;20376;-46
2022/11/11 05:42:26;;;;;;;40.03;22.77;;;;;;;;;;2123219;27;20047;-46
2022/11/11 05:43:27;;;;;;;44.00;22.03;;;;;;;;;;2123400;27;20047;-47
2022/11/11 05:44:28;;;;;;;37.45;21.67;;;;;;;;;;2123292;27;20088;-47
2022/11/11 05:45:29;;;;;;;43.80;22.15;;;;;;;;;;2123030;27;20142;-49
2022/11/11 05:46:30;;;;;;;44.53;23.98;;;;;;;;;;2123227;27;20047;-43
2022/11/11 05:47:32;;;;;;;45.22;23.45;;;;;;;;;;2122989;27;20055;-43
2022/11/11 05:48:32;;;;;;;49.05;23.50;;;;;;;;;;2123063;27;20055;-43
2022/11/11 05:49:34;;;;;;;48.37;24.53;;;;;;;;;;2123365;27;20554;-46
2022/11/11 05:50:37;;;;;;;47.20;23.85;;;;;;;;;;2122773;27;20543;-47
2022/11/11 05:51:38;;;;;;;43.53;23.65;;;;;;;;;;2122974;27;20476;-46
2022/11/11 05:52:45;;;;;;;38.20;21.38;;;;;;;;;;2123669;27;20119;-43
2022/11/11 05:53:46;;;;;;;44.28;23.83;;;;;;;;;;2123110;27;20300;-43
2022/11/11 05:54:47;;;;;;;44.83;23.98;;;;;;;;;;2123298;27;20047;-46
2022/11/11 05:55:49;;;;;;;46.22;24.05;;;;;;;;;;2123057;27;20103;-46
2022/11/11 05:56:50;;;;;;;45.00;25.70;;;;;;;;;;2122971;27;20495;-46
2022/11/11 05:57:51;;;;;;;40.50;22.58;;;;;;;;;;2122920;27;20044;-47
2022/11/11 05:58:52;;;;;;;47.90;25.65;;;;;;;;;;2123281;27;20088;-41
2022/11/11 05:59:53;;;;;;;45.42;23.08;;;;;;;;;;2123170;27;20076;-48
2022/11/11 06:00:54;;;;;;;44.85;22.80;;;;;;;;;;2122967;27;20054;-48
2022/11/11 06:01:56;;;;;;;40.95;24.38;;;;;;;;;;2123114;27;20085;-43
2022/11/11 06:03:00;;;;;;;53.28;25.75;;;;;;;;;;2122461;27;20524;-49
2022/11/11 06:04:02;;;;;;;42.35;24.00;;;;;;;;;;2123042;27;20050;-42
2022/11/11 06:05:03;;;;;;;48.28;24.63;;;;;;;;;;2123225;28;20043;-42
2022/11/11 06:06:05;;;;;;;44.60;22.48;;;;;;;;;;2122870;27;20043;-43
2022/11/11 06:07:06;;;;;;;44.03;22.00;;;;;;;;;;2123013;27;20041;-44
2022/11/11 06:08:07;;;;;;;42.23;22.60;;;;;;;;;;2122922;27;20134;-42
2022/11/11 06:09:08;;;;;;;51.10;25.30;;;;;;;;;;2123117;27;20283;-43
2022/11/11 06:11:29;;;;;;;52.53;25.20;;;;;;;;;;2124737;27;20412;-43
2022/11/11 06:13:00;;;;;;;44.10;24.05;;;;;;;;;;2130895;27;20047;-46
2022/11/11 06:13:55;;;;;;;45.63;24.45;;;;;;;;;;2130732;27;20089;-46
2022/11/11 06:14:55;;;;;;;44.47;23.60;;;;;;;;;;2130911;27;20043;-42
2022/11/11 06:15:58;;;;;;;46.77;24.60;;;;;;;;;;2130843;27;20501;-43
2022/11/11 06:16:59;;;;;;;48.13;24.75;;;;;;;;;;2130932;27;20046;-43
2022/11/11 06:18:00;;;;;;;45.20;23.98;;;;;;;;;;2130547;27;20042;-42
2022/11/11 06:19:03;;;;;;;56.65;26.20;;;;;;;;;;2131014;27;20049;-43
2022/11/11 06:20:04;;;;;;;48.17;24.00;;;;;;;;;;2131347;27;20047;-46
2022/11/11 06:21:05;;;;;;;45.10;24.08;;;;;;;;;;2131443;27;20046;-43
2022/11/11 06:22:06;;;;;;;45.65;24.27;;;;;;;;;;2131410;27;20038;-42
2022/11/11 06:23:07;;;;;;;49.17;25.97;;;;;;;;;;2131026;27;20452;-43
2022/11/11 06:24:08;;;;;;;58.42;25.60;;;;;;;;;;2131110;27;20046;-42
2022/11/11 06:26:29;;;;;;;49.65;25.02;;;;;;;;;;2122838;28;20047;-42
2022/11/11 06:27:30;;;;;;;51.63;25.20;;;;;;;;;;2122877;27;20047;-43
2022/11/11 06:28:31;;;;;;;47.85;22.80;;;;;;;;;;2122766;27;20043;-47
2022/11/11 06:29:32;;;;;;;48.17;23.42;;;;;;;;;;2122748;27;20502;-47
2022/11/11 06:30:33;;;;;;;52.35;25.25;;;;;;;;;;2122619;27;20070;-43
2022/11/11 06:31:54;;;;;;;55.53;24.67;;;;;;;;;;2122537;28;20050;-46
2022/11/11 06:32:55;;;;;;;53.13;25.50;;;;;;;;;;2122666;27;20127;-46
2022/11/11 06:33:57;;;;;;;55.00;26.05;;;;;;;;;;2122561;27;20047;-42
2022/11/11 06:34:58;;;;;;;53.20;25.35;;;;;;;;;;2122633;27;20430;-42
2022/11/11 06:35:59;;;;;;;52.00;24.53;;;;;;;;;;2122627;27;20126;-45
2022/11/11 06:37:00;;;;;;;56.67;26.65;;;;;;;;;;2122684;28;20062;-46
2022/11/11 06:38:01;;;;;;;51.05;25.25;;;;;;;;;;2122644;27;20043;-42
2022/11/11 06:39:02;;;;;;;52.93;25.77;;;;;;;;;;2122814;27;20043;-42
2022/11/11 06:40:03;;;;;;;54.47;26.15;;;;;;;;;;2122631;27;20047;-46
2022/11/11 06:41:04;;;;;;;50.42;25.15;;;;;;;;;;2122543;27;20576;-46
2022/11/11 06:42:05;;;;;;;52.65;25.85;;;;;;;;;;2122490;28;20487;-45
2022/11/11 06:43:06;;;;;;;59.50;27.53;;;;;;;;;;2122799;27;20122;-42
2022/11/11 06:44:08;;;;;;;48.50;23.55;;;;;;;;;;2122848;27;20054;-42
2022/11/11 06:45:09;;;;;;;49.42;23.88;;;;;;;;;;2122655;27;20396;-42
2022/11/11 06:46:13;;;;;;;60.22;27.52;;;;;;;;;;2122735;27;20058;-46
2022/11/11 06:47:19;;;;;;;57.80;24.88;;;;;;;;;;2122858;27;20044;-45
2022/11/11 06:48:21;;;;;;;61.67;26.97;;;;;;;;;;2122731;27;20051;-46
2022/11/11 06:49:22;;;;;;;55.70;25.40;;;;;;;;;;2122603;27;20043;-42
2022/11/11 06:50:23;;;;;;;54.53;26.25;;;;;;;;;;2122658;27;20096;-42
2022/11/11 06:51:24;;;;;;;59.07;26.37;;;;;;;;;;2122575;27;20093;-46
2022/11/11 06:52:25;;;;;;;55.75;25.15;;;;;;;;;;2122542;27;20051;-42
2022/11/11 06:53:28;;;;;;;57.53;25.83;;;;;;;;;;2122554;27;20099;-42
2022/11/11 06:54:28;;;;;;;60.33;27.25;;;;;;;;;;2122580;27;20540;-43
2022/11/11 06:55:29;;;;;;;54.47;26.47;;;;;;;;;;2122552;27;20260;-43
2022/11/11 06:56:31;;;;;;;65.15;28.15;;;;;;;;;;2122502;27;20631;-45
2022/11/11 06:57:32;;;;;;;63.97;28.13;;;;;;;;;;2122421;28;20154;-43
2022/11/11 06:58:33;;;;;;;55.28;25.55;;;;;;;;;;2122434;27;20047;-46
2022/11/11 06:59:34;;;;;;;67.57;27.13;;;;;;;;;;2122502;27;20385;-43
2022/11/11 07:00:35;;;;;;;59.42;27.23;;;;;;;;;;2122494;28;20147;-44
2022/11/11 07:01:36;;;;;;;62.08;26.73;;;;;;;;;;2122583;27;20043;-47
2022/11/11 07:02:37;;;;;;;59.42;26.77;;;;;;;;;;2122606;27;20701;-47
2022/11/11 07:03:40;;;;;;;65.07;27.67;;;;;;;;;;2122618;27;20050;-44
2022/11/11 07:04:40;;;;;;;57.50;25.75;;;;;;;;;;2122645;27;20051;-43
2022/11/11 07:05:42;;;;;;;65.13;28.00;;;;;;;;;;2122637;27;20043;-46
2022/11/11 07:06:43;;;;;;;57.28;26.35;;;;;;;;;;2122597;27;20054;-46
2022/11/11 07:07:44;;;;;;;57.47;27.23;;;;;;;;;;2122483;27;20039;-43
2022/11/11 07:08:45;;;;;;;61.97;27.83;;;;;;;;;;2122475;27;20047;-46
2022/11/11 07:09:46;;;;;;;56.00;27.65;;;;;;;;;;2122492;27;20507;-46
2022/11/11 07:10:48;;;;;;;60.47;27.13;;;;;;;;;;2122391;27;20039;-43
2022/11/11 07:11:48;;;;;;;55.90;27.15;;;;;;;;;;2122514;27;20047;-46